Aragon, NM

12:06 PM MDT on May 04, 2015 (GMT -0600)
RAWS | | Change Station
CLOSE
Current Station
Personal Weather Station
Location: Luna, NM
Elevation: 7045 ft
Nearby Weather Stations

Elev 7045 ft 33.82 °N, 108.94 °W | Updated 59 minutes ago

Mostly Cloudy
Mostly Cloudy
51 °F
Feels Like 51 °F
N
0
Wind Variable Wind from North
Gusts 16.0 mph

Today
High -- | Low -- °F
--% Chance of Precip.
Yesterday
High -- | Low -- °F
Precip. -- in
6:22 AM 8:00 PM
Full, 100% visible
Pressure 29.87 in
Visibility 10.0 miles
Clouds Scattered Clouds 6000 ft
Mostly Cloudy 7000 ft
Overcast 10000 ft
Dew Point 40 °F
Humidity 67%
Rainfall in
Snow Depth Not available.
UV 3 out of 12
Pollen 6.80 out of 12
Air Quality Not available.
Flu Activity Local Activity
METAR KSJN 041754Z AUTO 26013KT 10SM VCTS -RA SCT060 BKN070 OVC100 13/08 A3005 RMK AO2 LTG DSNT SE AND W RAB47 SLP115 P0000 60000 T01330078 10156 20089 51007

More Conditions Fewer Conditions

Pressure 29.87 in
Visibility 10.0 miles
Clouds Scattered Clouds 6000 ft
Mostly Cloudy 7000 ft
Overcast 10000 ft
Dew Point 40 °F
Humidity 67%
Rainfall in
Snow Depth Not available.
UV 3 out of 12
Pollen 6.80 out of 12
Air Quality Not available.
Flu Activity Local Activity
METAR KSJN 041754Z AUTO 26013KT 10SM VCTS -RA SCT060 BKN070 OVC100 13/08 A3005 RMK AO2 LTG DSNT SE AND W RAB47 SLP115 P0000 60000 T01330078 10156 20089 51007

More Conditions Fewer Conditions

Nepal has a long way to go to dig out and rebuild from a devastating earthquake. We have teamed up with several charities and organizations to make contributing to the relief effort as easy as possible.
How you can help: Portlight Strategies | Red Cross

10-Day Weather Forecast

Almanac

Astronomy

May. 04, 2015 Rise Set
Actual Time
Civil Twilight
Nautical Twilight
Astronomical Twilight
Moon
Length of Visible Light
Length of Day
Tomorrow will be .
, % of the Moon is Illuminated

Today's Extremes

State Highs State Lows

Community

WunderPhotos

Upload Photos

1,818,661 photos uploaded!

WunderBlogs® & News

Nearby

Air Quality

  Air Quality AQ Index Pollutant
Not available.

Snow Depth

Station Depth Elevation

Earthquake Activity

City Distance Mag. Time & Date
Minimum magnitude displayed is 2.5.

Coastal Water Temperatures

Place Temperature

Stations

Nearby Weather Stations

Station Location Temp. Windchill Dew Point Humidity Wind Precip. Elev Updated Type